createdAt,value
2019-03-20T00:02:40.380Z,100856.74
2019-03-20T00:08:45.162Z,100869.16
2019-03-20T00:14:49.807Z,100874.58
2019-03-20T00:20:54.362Z,100869.55
2019-03-20T00:26:59.000Z,100890.66
2019-03-20T00:33:03.706Z,100890.88
2019-03-20T00:39:09.317Z,100877.63
2019-03-20T00:45:19.515Z,100881.77
2019-03-20T00:51:24.088Z,100885.88
2019-03-20T00:57:28.665Z,100892.14
2019-03-20T01:03:33.290Z,100883.94
2019-03-20T01:09:37.941Z,100885.83
2019-03-20T01:15:42.535Z,100868.20
2019-03-20T01:21:47.097Z,100883.93
2019-03-20T01:27:51.735Z,100878.65
2019-03-20T01:33:56.472Z,100887.44
2019-03-20T01:40:01.067Z,100890.16
2019-03-20T01:46:05.861Z,100897.89
2019-03-20T01:52:10.509Z,100886.47
2019-03-20T01:58:15.090Z,100896.08
2019-03-20T02:04:19.658Z,100883.55
2019-03-20T02:10:24.364Z,100887.72
2019-03-20T02:16:28.988Z,100893.86
2019-03-20T02:22:33.617Z,100896.00
2019-03-20T02:28:38.168Z,100884.16
2019-03-20T02:34:42.730Z,100883.28
2019-03-20T02:40:47.396Z,100887.42
2019-03-20T02:46:51.993Z,100900.54
2019-03-20T02:52:56.574Z,100896.85
2019-03-20T02:59:01.189Z,100905.90
2019-03-20T03:05:07.674Z,100909.53
2019-03-20T03:11:12.228Z,100915.08
2019-03-20T03:17:16.788Z,100913.66
2019-03-20T03:23:21.366Z,100912.00
2019-03-20T03:29:27.600Z,100912.06
2019-03-20T03:35:32.166Z,100927.11
2019-03-20T03:41:36.733Z,100924.40
2019-03-20T03:47:41.546Z,100922.34
2019-03-20T03:53:46.164Z,100927.81
2019-03-20T03:59:50.824Z,100921.87
2019-03-20T04:05:55.450Z,100926.66
2019-03-20T04:12:00.107Z,100922.14
2019-03-20T04:18:04.833Z,100921.66
2019-03-20T04:24:09.381Z,100907.94
2019-03-20T04:30:19.175Z,100920.92
2019-03-20T04:36:23.769Z,100922.54
2019-03-20T04:42:28.324Z,100934.91
2019-03-20T04:48:32.924Z,100932.26
2019-03-20T04:54:37.549Z,100928.30
2019-03-20T05:00:42.122Z,100934.02
2019-03-20T05:06:46.717Z,100936.94
2019-03-20T05:12:51.573Z,100938.63
2019-03-20T05:18:56.157Z,100953.50
2019-03-20T05:25:00.784Z,100948.94
2019-03-20T05:31:05.444Z,100952.95
2019-03-20T05:37:10.921Z,100950.82
2019-03-20T05:43:15.743Z,100947.34
2019-03-20T05:49:20.288Z,100958.70
2019-03-20T05:55:24.929Z,100965.94
2019-03-20T06:01:29.602Z,100974.82
2019-03-20T06:07:34.299Z,100994.53
2019-03-20T06:13:38.848Z,100990.59
2019-03-20T06:19:43.410Z,100996.12
2019-03-20T06:25:48.042Z,101007.84
2019-03-20T06:31:52.663Z,101014.03
2019-03-20T06:37:57.279Z,101022.75
2019-03-20T06:44:01.847Z,101030.41
2019-03-20T06:50:13.727Z,101031.75
2019-03-20T06:56:18.278Z,101010.80
2019-03-20T07:02:23.175Z,101019.81
2019-03-20T07:08:32.429Z,101013.53
2019-03-20T07:14:36.982Z,101034.55
2019-03-20T07:20:41.523Z,101019.48
2019-03-20T07:26:46.098Z,101033.98
2019-03-20T07:32:50.676Z,101038.85
2019-03-20T07:38:55.957Z,101047.05
2019-03-20T07:45:00.527Z,101051.66
2019-03-20T07:51:05.143Z,101057.91
2019-03-20T07:57:09.710Z,101057.09
2019-03-20T08:03:14.351Z,101059.84
2019-03-20T08:09:19.065Z,101056.67
2019-03-20T08:15:23.679Z,101058.41
2019-03-20T08:21:28.226Z,101059.95
2019-03-20T08:27:32.916Z,101058.47
2019-03-20T08:33:37.462Z,101068.45
2019-03-20T08:39:42.048Z,101071.83
2019-03-20T08:45:46.676Z,101068.64
2019-03-20T08:51:51.240Z,101071.94
2019-03-20T08:57:55.956Z,101077.55
2019-03-20T09:04:00.610Z,101081.23
2019-03-20T09:10:29.247Z,101083.91
2019-03-20T09:16:33.878Z,101076.70
2019-03-20T09:22:38.515Z,101075.14
2019-03-20T09:28:43.095Z,101060.95
2019-03-20T09:34:47.671Z,101060.11
2019-03-20T09:40:52.256Z,101055.67
2019-03-20T09:46:56.894Z,101052.83
2019-03-20T09:53:01.514Z,101059.18
2019-03-20T09:59:06.150Z,101048.17
2019-03-20T10:05:10.958Z,101044.70
2019-03-20T10:11:15.516Z,101042.77
2019-03-20T10:17:20.101Z,101033.89
2019-03-20T10:23:24.655Z,101034.11
2019-03-20T10:29:29.343Z,101027.81
2019-03-20T10:35:33.917Z,101025.99
2019-03-20T10:41:38.573Z,101028.60
2019-03-20T10:47:43.322Z,101027.91
2019-03-20T10:53:47.950Z,101032.22
2019-03-20T10:59:52.532Z,101038.75
2019-03-20T11:05:57.091Z,101033.35
2019-03-20T11:12:01.742Z,101038.03
2019-03-20T11:18:06.382Z,101034.02
2019-03-20T11:24:10.966Z,101031.38
2019-03-20T11:30:28.332Z,101040.11
2019-03-20T11:36:32.920Z,101046.90
2019-03-20T11:42:37.556Z,101039.95
2019-03-20T11:48:42.214Z,101035.70
2019-03-20T11:54:46.794Z,101035.31
2019-03-20T12:00:51.457Z,101029.24
2019-03-20T12:06:56.020Z,101040.02
2019-03-20T12:13:00.713Z,101022.59
2019-03-20T12:19:05.438Z,101012.66
2019-03-20T12:25:30.260Z,101011.05
2019-03-20T12:31:35.513Z,101015.50
2019-03-20T12:37:40.153Z,101016.34
2019-03-20T12:43:45.567Z,101012.41
2019-03-20T12:49:50.205Z,101002.76
2019-03-20T12:55:54.837Z,100997.06
2019-03-20T13:01:59.485Z,101001.30
2019-03-20T13:08:06.116Z,100993.88
2019-03-20T13:14:10.530Z,100994.39
2019-03-20T13:20:15.219Z,100999.79
2019-03-20T13:26:19.808Z,101017.95
2019-03-20T13:32:24.381Z,100998.20
2019-03-20T13:38:28.947Z,100987.41
2019-03-20T13:44:33.513Z,100978.34
2019-03-20T13:50:38.140Z,100975.36
2019-03-20T13:56:42.921Z,100973.70
2019-03-20T14:02:54.940Z,100978.41
2019-03-20T14:08:59.549Z,100986.22
2019-03-20T14:15:05.025Z,100974.34
2019-03-20T14:21:09.735Z,100991.92
2019-03-20T14:27:14.413Z,100990.02
2019-03-20T14:33:18.972Z,100993.63
2019-03-20T14:39:23.665Z,100986.78
2019-03-20T14:45:28.643Z,100989.44
2019-03-20T14:51:33.246Z,100988.93
2019-03-20T14:57:37.920Z,100990.28
2019-03-20T15:03:42.579Z,100986.63
2019-03-20T15:09:47.223Z,100982.37
2019-03-20T15:16:02.224Z,100978.48
2019-03-20T15:22:06.795Z,100973.20
2019-03-20T15:28:11.369Z,100974.47
2019-03-20T15:34:15.923Z,100973.41
2019-03-20T15:40:27.135Z,100963.63
2019-03-20T15:46:31.854Z,100959.09
2019-03-20T15:52:36.393Z,100962.92
2019-03-20T15:58:40.985Z,100956.87
2019-03-20T16:04:45.546Z,100943.05
2019-03-20T16:10:50.271Z,100951.80
2019-03-20T16:16:54.899Z,100955.34
2019-03-20T16:22:59.478Z,100961.16
2019-03-20T16:29:04.101Z,100965.87
2019-03-20T16:35:10.378Z,100972.19
2019-03-20T16:41:16.941Z,100970.77
2019-03-20T16:47:21.406Z,100979.66
2019-03-20T16:53:25.990Z,100977.70
2019-03-20T16:59:30.690Z,100988.05
2019-03-20T17:05:35.243Z,100991.85
2019-03-20T17:11:39.809Z,101004.00
2019-03-20T17:17:44.393Z,101011.84
2019-03-20T17:23:48.945Z,101013.23
2019-03-20T17:29:53.535Z,101026.39
2019-03-20T17:35:58.092Z,101025.41
2019-03-20T17:42:02.662Z,101032.64
2019-03-20T17:48:07.223Z,101022.38
2019-03-20T17:54:11.770Z,101020.88
2019-03-20T18:00:40.114Z,101018.52
2019-03-20T18:06:44.755Z,101013.49
2019-03-20T18:12:49.321Z,101013.80
2019-03-20T18:18:53.918Z,101026.92
2019-03-20T18:24:58.592Z,101035.61
2019-03-20T18:31:03.330Z,101042.64
2019-03-20T18:37:07.897Z,101057.38
2019-03-20T18:43:12.532Z,101063.07
2019-03-20T18:49:17.177Z,101064.73
2019-03-20T18:55:22.065Z,101061.34
2019-03-20T19:01:26.712Z,101078.61
2019-03-20T19:07:32.077Z,101078.42
2019-03-20T19:13:37.226Z,101079.53
2019-03-20T19:19:41.794Z,101078.55
2019-03-20T19:25:46.348Z,101086.29
2019-03-20T19:31:50.972Z,101088.43
2019-03-20T19:37:55.545Z,101086.53
2019-03-20T19:44:00.114Z,101092.41
2019-03-20T19:50:11.911Z,101090.48
2019-03-20T19:56:16.506Z,101078.06
2019-03-20T20:02:21.336Z,101077.97
2019-03-20T20:08:25.899Z,101082.92
2019-03-20T20:14:30.502Z,101082.08
2019-03-20T20:20:40.168Z,101073.00
2019-03-20T20:26:44.735Z,101080.69
2019-03-20T20:32:49.450Z,101088.14
2019-03-20T20:38:54.026Z,101084.61
2019-03-20T20:44:58.589Z,101086.62
2019-03-20T20:51:05.042Z,101093.46
2019-03-20T20:57:09.599Z,101098.39
2019-03-20T21:29:35.920Z,101090.48
2019-03-20T21:36:31.952Z,101090.71
2019-03-20T21:43:29.858Z,101092.08
2019-03-20T21:49:34.431Z,101089.41
2019-03-20T21:56:18.792Z,101100.73
2019-03-20T22:02:45.136Z,101106.11
2019-03-20T22:08:49.686Z,101110.33
2019-03-20T22:15:04.740Z,101110.38
2019-03-20T22:21:36.048Z,101111.45
2019-03-20T22:28:14.358Z,101109.78
2019-03-20T22:34:54.757Z,101115.03
2019-03-20T22:41:35.416Z,101116.61
2019-03-20T22:47:56.918Z,101127.93
2019-03-20T22:54:31.914Z,101127.91
2019-03-20T23:00:57.079Z,101130.97
2019-03-20T23:07:03.133Z,101137.66
2019-03-20T23:13:18.249Z,101145.48
2019-03-20T23:19:15.824Z,101139.06
2019-03-20T23:25:20.365Z,101143.23
2019-03-20T23:31:26.598Z,101149.70
2019-03-20T23:37:33.942Z,101155.92
2019-03-20T23:43:48.609Z,101159.01
2019-03-20T23:49:45.076Z,101164.34
2019-03-20T23:55:53.111Z,101158.14
